sensor_id;sensor_type;location;lat;lon;timestamp;pressure;altitude;pressure_sealevel;temperature;humidity
77279;BME280;66332;50.436;15.378;2023-04-28T04:00:09;98481.63;;;3.44;73.27
77279;BME280;66332;50.436;15.378;2023-04-28T04:04:50;98476.28;;;3.46;72.65
77279;BME280;66332;50.436;15.378;2023-04-28T04:09:31;98467.59;;;3.57;71.99
77279;BME280;66332;50.436;15.378;2023-04-28T04:14:12;98482.94;;;3.60;72.20
77279;BME280;66332;50.436;15.378;2023-04-28T04:18:53;98482.56;;;3.74;71.40
77279;BME280;66332;50.436;15.378;2023-04-28T04:23:34;98474.41;;;3.79;71.21
77279;BME280;66332;50.436;15.378;2023-04-28T04:28:15;98481.75;;;4.04;70.58
77279;BME280;66332;50.436;15.378;2023-04-28T04:32:55;98494.84;;;4.24;70.69
77279;BME280;66332;50.436;15.378;2023-04-28T04:37:36;98492.88;;;4.16;71.60
77279;BME280;66332;50.436;15.378;2023-04-28T04:42:17;98485.00;;;4.37;71.62
77279;BME280;66332;50.436;15.378;2023-04-28T04:46:58;98491.69;;;4.30;72.35
77279;BME280;66332;50.436;15.378;2023-04-28T04:51:38;98479.03;;;4.66;71.31
77279;BME280;66332;50.436;15.378;2023-04-28T04:56:19;98476.69;;;4.72;71.81
77279;BME280;66332;50.436;15.378;2023-04-28T05:01:00;98466.94;;;4.74;71.99
77279;BME280;66332;50.436;15.378;2023-04-28T05:05:42;98454.75;;;4.85;70.83
77279;BME280;66332;50.436;15.378;2023-04-28T05:10:25;98473.53;;;5.27;70.86
77279;BME280;66332;50.436;15.378;2023-04-28T05:15:07;98459.03;;;5.62;68.80
77279;BME280;66332;50.436;15.378;2023-04-28T05:19:48;98468.81;;;5.87;67.66
77279;BME280;66332;50.436;15.378;2023-04-28T05:24:28;98461.13;;;5.95;66.86
77279;BME280;66332;50.436;15.378;2023-04-28T05:29:12;98450.91;;;6.30;65.77
77279;BME280;66332;50.436;15.378;2023-04-28T05:33:56;98452.44;;;6.68;64.11
77279;BME280;66332;50.436;15.378;2023-04-28T05:38:38;98447.38;;;6.66;63.25
77279;BME280;66332;50.436;15.378;2023-04-28T05:43:19;98444.00;;;6.92;61.64
77279;BME280;66332;50.436;15.378;2023-04-28T05:48:00;98443.78;;;7.29;62.41
77279;BME280;66332;50.436;15.378;2023-04-28T05:52:41;98452.38;;;7.40;57.96
77279;BME280;66332;50.436;15.378;2023-04-28T05:57:22;98444.66;;;7.38;58.27
77279;BME280;66332;50.436;15.378;2023-04-28T06:02:03;98441.94;;;7.48;59.54
77279;BME280;66332;50.436;15.378;2023-04-28T06:06:43;98436.50;;;7.41;57.88
77279;BME280;66332;50.436;15.378;2023-04-28T06:11:24;98443.06;;;7.45;58.68
77279;BME280;66332;50.436;15.378;2023-04-28T06:16:06;98421.84;;;7.48;58.61
77279;BME280;66332;50.436;15.378;2023-04-28T06:20:47;98429.97;;;7.71;58.75
77279;BME280;66332;50.436;15.378;2023-04-28T06:25:30;98431.25;;;8.01;57.55
77279;BME280;66332;50.436;15.378;2023-04-28T06:30:21;98429.00;;;8.15;58.16
77279;BME280;66332;50.436;15.378;2023-04-28T06:35:03;98426.06;;;8.10;56.56
77279;BME280;66332;50.436;15.378;2023-04-28T06:39:44;98425.88;;;8.11;57.78
77279;BME280;66332;50.436;15.378;2023-04-28T06:44:25;98413.72;;;8.44;56.79
77279;BME280;66332;50.436;15.378;2023-04-28T06:49:05;98419.97;;;8.43;55.49
77279;BME280;66332;50.436;15.378;2023-04-28T06:53:46;98407.72;;;8.77;55.80
77279;BME280;66332;50.436;15.378;2023-04-28T06:58:27;98417.03;;;9.12;54.71
77279;BME280;66332;50.436;15.378;2023-04-28T07:03:08;98417.81;;;9.37;53.09
77279;BME280;66332;50.436;15.378;2023-04-28T07:07:49;98384.81;;;9.51;52.10
77279;BME280;66332;50.436;15.378;2023-04-28T07:12:30;98412.00;;;10.14;50.51
77279;BME280;66332;50.436;15.378;2023-04-28T07:17:11;98410.94;;;10.62;51.44
77279;BME280;66332;50.436;15.378;2023-04-28T07:21:52;98399.19;;;10.50;48.58
77279;BME280;66332;50.436;15.378;2023-04-28T07:26:33;98391.81;;;10.68;49.65
77279;BME280;66332;50.436;15.378;2023-04-28T07:31:14;98399.16;;;11.11;45.90
77279;BME280;66332;50.436;15.378;2023-04-28T07:35:55;98393.50;;;11.52;47.92
77279;BME280;66332;50.436;15.378;2023-04-28T07:40:36;98388.63;;;11.78;45.72
77279;BME280;66332;50.436;15.378;2023-04-28T07:45:17;98385.06;;;12.01;46.19
77279;BME280;66332;50.436;15.378;2023-04-28T07:49:58;98394.41;;;12.18;44.87
77279;BME280;66332;50.436;15.378;2023-04-28T07:54:48;98397.44;;;12.58;43.02
77279;BME280;66332;50.436;15.378;2023-04-28T07:59:32;98378.13;;;12.72;43.42
77279;BME280;66332;50.436;15.378;2023-04-28T08:04:13;98374.56;;;12.86;42.94
77279;BME280;66332;50.436;15.378;2023-04-28T08:08:54;98373.31;;;12.82;44.28
77279;BME280;66332;50.436;15.378;2023-04-28T08:13:35;98360.78;;;13.13;43.21
77279;BME280;66332;50.436;15.378;2023-04-28T08:18:16;98353.84;;;13.33;40.74
77279;BME280;66332;50.436;15.378;2023-04-28T08:22:57;98363.69;;;13.52;41.37
77279;BME280;66332;50.436;15.378;2023-04-28T08:27:38;98349.41;;;13.40;40.80
77279;BME280;66332;50.436;15.378;2023-04-28T08:32:19;98348.66;;;13.53;39.69
77279;BME280;66332;50.436;15.378;2023-04-28T08:37:00;98352.38;;;13.65;41.63
77279;BME280;66332;50.436;15.378;2023-04-28T08:41:41;98331.63;;;14.17;41.06
77279;BME280;66332;50.436;15.378;2023-04-28T08:46:23;98326.34;;;14.23;41.13
77279;BME280;66332;50.436;15.378;2023-04-28T08:51:07;98309.63;;;14.03;41.76
77279;BME280;66332;50.436;15.378;2023-04-28T08:55:53;98328.34;;;14.08;40.36
77279;BME280;66332;50.436;15.378;2023-04-28T09:00:36;98324.50;;;14.24;40.52
77279;BME280;66332;50.436;15.378;2023-04-28T09:05:17;98313.75;;;14.39;43.27
77279;BME280;66332;50.436;15.378;2023-04-28T09:10:18;98315.63;;;15.05;41.52
77279;BME280;66332;50.436;15.378;2023-04-28T09:15:00;98314.38;;;15.34;38.43
77279;BME280;66332;50.436;15.378;2023-04-28T09:19:48;98313.97;;;15.24;38.54
77279;BME280;66332;50.436;15.378;2023-04-28T09:24:33;98314.75;;;15.37;37.66
77279;BME280;66332;50.436;15.378;2023-04-28T09:29:14;98294.16;;;15.91;37.63
77279;BME280;66332;50.436;15.378;2023-04-28T09:33:58;98295.16;;;15.97;37.55
77279;BME280;66332;50.436;15.378;2023-04-28T09:38:43;98286.16;;;16.04;37.65
77279;BME280;66332;50.436;15.378;2023-04-28T09:43:32;98272.81;;;16.49;38.04
77279;BME280;66332;50.436;15.378;2023-04-28T09:48:13;98273.28;;;16.08;36.91
77279;BME280;66332;50.436;15.378;2023-04-28T09:52:55;98276.22;;;16.25;37.01
77279;BME280;66332;50.436;15.378;2023-04-28T09:57:37;98257.94;;;16.42;39.80
77279;BME280;66332;50.436;15.378;2023-04-28T10:02:20;98252.06;;;16.08;38.04
77279;BME280;66332;50.436;15.378;2023-04-28T10:07:01;98260.47;;;16.55;38.19
77279;BME280;66332;50.436;15.378;2023-04-28T10:11:42;98254.22;;;16.49;37.28
77279;BME280;66332;50.436;15.378;2023-04-28T10:16:23;98249.75;;;16.93;34.91
77279;BME280;66332;50.436;15.378;2023-04-28T10:21:06;98223.25;;;17.42;35.35
77279;BME280;66332;50.436;15.378;2023-04-28T10:25:55;98230.00;;;17.26;33.82
77279;BME280;66332;50.436;15.378;2023-04-28T10:30:38;98211.47;;;17.01;34.57
77279;BME280;66332;50.436;15.378;2023-04-28T10:45:11;98190.88;;;17.94;34.10
77279;BME280;66332;50.436;15.378;2023-04-28T10:54:37;98165.19;;;17.87;32.61
77279;BME280;66332;50.436;15.378;2023-04-28T10:59:24;98168.25;;;18.50;30.73
77279;BME280;66332;50.436;15.378;2023-04-28T11:04:07;98154.00;;;18.09;33.75
77279;BME280;66332;50.436;15.378;2023-04-28T11:19:01;98177.06;;;17.55;33.61
77279;BME280;66332;50.436;15.378;2023-04-28T11:23:45;98179.31;;;17.39;32.18
77279;BME280;66332;50.436;15.378;2023-04-28T11:28:26;98166.91;;;17.82;32.60
77279;BME280;66332;50.436;15.378;2023-04-28T11:33:08;98159.78;;;17.64;32.30
77279;BME280;66332;50.436;15.378;2023-04-28T11:38:01;98162.78;;;17.07;32.26
77279;BME280;66332;50.436;15.378;2023-04-28T11:42:47;98161.22;;;16.81;34.19
77279;BME280;66332;50.436;15.378;2023-04-28T11:47:28;98142.34;;;16.89;34.06
77279;BME280;66332;50.436;15.378;2023-04-28T11:52:10;98147.28;;;17.04;34.53
77279;BME280;66332;50.436;15.378;2023-04-28T11:56:53;98145.94;;;16.95;33.67
77279;BME280;66332;50.436;15.378;2023-04-28T12:06:34;98151.78;;;16.42;34.63
77279;BME280;66332;50.436;15.378;2023-04-28T12:11:14;98142.00;;;16.17;33.42
77279;BME280;66332;50.436;15.378;2023-04-28T12:15:57;98129.91;;;16.21;34.68
77279;BME280;66332;50.436;15.378;2023-04-28T12:20:41;98133.44;;;16.15;35.25
77279;BME280;66332;50.436;15.378;2023-04-28T12:25:23;98136.81;;;16.29;34.69
77279;BME280;66332;50.436;15.378;2023-04-28T12:30:23;98134.72;;;16.31;34.67
77279;BME280;66332;50.436;15.378;2023-04-28T12:35:05;98130.72;;;16.22;35.38
77279;BME280;66332;50.436;15.378;2023-04-28T12:39:46;98134.41;;;16.21;35.38
77279;BME280;66332;50.436;15.378;2023-04-28T12:44:36;98134.19;;;15.72;35.88
77279;BME280;66332;50.436;15.378;2023-04-28T12:49:17;98127.09;;;15.91;35.69
77279;BME280;66332;50.436;15.378;2023-04-28T12:53:58;98132.19;;;15.68;37.39
77279;BME280;66332;50.436;15.378;2023-04-28T12:58:39;98121.06;;;15.84;38.35
77279;BME280;66332;50.436;15.378;2023-04-28T13:03:20;98108.91;;;15.70;36.08
77279;BME280;66332;50.436;15.378;2023-04-28T13:08:01;98108.59;;;15.53;37.98
77279;BME280;66332;50.436;15.378;2023-04-28T13:12:42;98098.13;;;15.33;36.36
77279;BME280;66332;50.436;15.378;2023-04-28T13:17:23;98104.06;;;15.60;37.91
77279;BME280;66332;50.436;15.378;2023-04-28T13:22:04;98095.69;;;15.63;37.00
77279;BME280;66332;50.436;15.378;2023-04-28T13:26:46;98098.13;;;15.71;38.53
77279;BME280;66332;50.436;15.378;2023-04-28T13:31:27;98097.53;;;15.31;39.86
77279;BME280;66332;50.436;15.378;2023-04-28T13:36:10;98097.50;;;15.37;41.14
77279;BME280;66332;50.436;15.378;2023-04-28T13:40:52;98098.34;;;15.31;37.33
77279;BME280;66332;50.436;15.378;2023-04-28T13:45:33;98103.84;;;14.85;38.88
77279;BME280;66332;50.436;15.378;2023-04-28T13:50:14;98091.09;;;15.13;40.77
77279;BME280;66332;50.436;15.378;2023-04-28T13:54:54;98090.72;;;15.03;40.52
77279;BME280;66332;50.436;15.378;2023-04-28T13:59:35;98108.59;;;14.76;39.57
77279;BME280;66332;50.436;15.378;2023-04-28T14:04:16;98097.34;;;14.81;41.03
77279;BME280;66332;50.436;15.378;2023-04-28T14:09:00;98090.50;;;14.60;40.33
77279;BME280;66332;50.436;15.378;2023-04-28T14:13:43;98096.69;;;14.14;44.58
77279;BME280;66332;50.436;15.378;2023-04-28T14:18:24;98109.50;;;14.17;45.85
77279;BME280;66332;50.436;15.378;2023-04-28T14:23:05;98117.03;;;14.00;47.64
77279;BME280;66332;50.436;15.378;2023-04-28T14:27:48;98107.69;;;14.04;47.51
77279;BME280;66332;50.436;15.378;2023-04-28T14:32:29;98109.28;;;14.05;53.46
77279;BME280;66332;50.436;15.378;2023-04-28T14:37:10;98120.28;;;13.75;53.37
77279;BME280;66332;50.436;15.378;2023-04-28T14:41:51;98109.06;;;13.60;56.50
77279;BME280;66332;50.436;15.378;2023-04-28T14:46:32;98103.59;;;13.62;57.48
77279;BME280;66332;50.436;15.378;2023-04-28T14:51:13;98088.97;;;13.59;54.88
77279;BME280;66332;50.436;15.378;2023-04-28T14:55:55;98093.84;;;13.56;54.54
77279;BME280;66332;50.436;15.378;2023-04-28T15:00:37;98088.97;;;13.59;55.64
77279;BME280;66332;50.436;15.378;2023-04-28T15:05:18;98091.19;;;13.62;54.79
77279;BME280;66332;50.436;15.378;2023-04-28T15:09:59;98084.88;;;13.50;56.19
77279;BME280;66332;50.436;15.378;2023-04-28T15:14:40;98074.50;;;13.35;59.11
77279;BME280;66332;50.436;15.378;2023-04-28T15:19:22;98078.56;;;13.38;58.35
77279;BME280;66332;50.436;15.378;2023-04-28T15:24:03;98081.16;;;13.24;60.54
77279;BME280;66332;50.436;15.378;2023-04-28T15:28:44;98076.28;;;13.15;61.48
77279;BME280;66332;50.436;15.378;2023-04-28T15:33:25;98071.84;;;12.67;66.01
77279;BME280;66332;50.436;15.378;2023-04-28T15:38:06;98070.69;;;12.42;66.19
77279;BME280;66332;50.436;15.378;2023-04-28T15:42:48;98071.84;;;12.32;67.88
77279;BME280;66332;50.436;15.378;2023-04-28T15:47:29;98075.06;;;12.21;68.71
77279;BME280;66332;50.436;15.378;2023-04-28T15:52:10;98059.59;;;12.11;67.61
77279;BME280;66332;50.436;15.378;2023-04-28T15:56:52;98068.41;;;12.32;65.25
77279;BME280;66332;50.436;15.378;2023-04-28T16:01:33;98064.16;;;12.31;65.63
77279;BME280;66332;50.436;15.378;2023-04-28T16:06:14;98067.03;;;12.36;65.32
77279;BME280;66332;50.436;15.378;2023-04-28T16:10:55;98061.84;;;12.56;64.42
77279;BME280;66332;50.436;15.378;2023-04-28T16:15:36;98059.03;;;12.57;64.47
77279;BME280;66332;50.436;15.378;2023-04-28T16:20:17;98057.84;;;12.67;63.33
77279;BME280;66332;50.436;15.378;2023-04-28T16:24:58;98057.44;;;12.63;63.26
77279;BME280;66332;50.436;15.378;2023-04-28T16:29:43;98040.53;;;12.51;65.19
77279;BME280;66332;50.436;15.378;2023-04-28T16:34:25;98040.53;;;12.51;65.75
77279;BME280;66332;50.436;15.378;2023-04-28T16:39:07;98037.66;;;12.46;65.37
77279;BME280;66332;50.436;15.378;2023-04-28T16:43:49;98033.56;;;12.36;65.46
77279;BME280;66332;50.436;15.378;2023-04-28T16:48:30;98029.13;;;12.44;65.48
77279;BME280;66332;50.436;15.378;2023-04-28T16:53:10;98026.09;;;12.47;66.18
77279;BME280;66332;50.436;15.378;2023-04-28T16:57:51;98022.38;;;12.34;66.38
77279;BME280;66332;50.436;15.378;2023-04-28T17:02:32;98022.00;;;12.37;65.95
77279;BME280;66332;50.436;15.378;2023-04-28T17:07:13;98023.31;;;12.20;66.49
77279;BME280;66332;50.436;15.378;2023-04-28T17:11:54;98013.69;;;12.34;65.93
77279;BME280;66332;50.436;15.378;2023-04-28T17:16:36;98011.00;;;12.27;66.41
77279;BME280;66332;50.436;15.378;2023-04-28T17:21:17;98011.75;;;12.14;67.23
77279;BME280;66332;50.436;15.378;2023-04-28T17:25:58;97998.72;;;12.06;67.88
77279;BME280;66332;50.436;15.378;2023-04-28T17:30:39;98002.44;;;12.19;68.76
77279;BME280;66332;50.436;15.378;2023-04-28T17:35:20;97999.16;;;12.10;69.00
77279;BME280;66332;50.436;15.378;2023-04-28T17:40:01;97995.78;;;11.88;69.30
77279;BME280;66332;50.436;15.378;2023-04-28T17:44:43;97997.34;;;11.82;68.35
77279;BME280;66332;50.436;15.378;2023-04-28T17:49:24;97993.19;;;11.66;68.57
77279;BME280;66332;50.436;15.378;2023-04-28T17:54:05;97988.47;;;11.62;68.39
77279;BME280;66332;50.436;15.378;2023-04-28T17:58:49;97992.31;;;11.59;68.96
77279;BME280;66332;50.436;15.378;2023-04-28T18:03:30;97982.78;;;11.58;69.46
77279;BME280;66332;50.436;15.378;2023-04-28T18:08:11;97993.22;;;11.73;69.36
77279;BME280;66332;50.436;15.378;2023-04-28T18:12:53;97989.28;;;11.62;70.13
77279;BME280;66332;50.436;15.378;2023-04-28T18:17:33;97987.75;;;11.46;71.05
77279;BME280;66332;50.436;15.378;2023-04-28T18:22:15;97990.97;;;11.42;71.18
77279;BME280;66332;50.436;15.378;2023-04-28T18:26:56;97974.69;;;11.32;71.69
77279;BME280;66332;50.436;15.378;2023-04-28T18:31:37;97973.88;;;11.31;71.52
77279;BME280;66332;50.436;15.378;2023-04-28T18:36:18;97974.16;;;11.15;71.38
77279;BME280;66332;50.436;15.378;2023-04-28T18:40:59;97980.16;;;11.30;70.67
77279;BME280;66332;50.436;15.378;2023-04-28T18:45:41;97988.38;;;11.20;71.31
77279;BME280;66332;50.436;15.378;2023-04-28T18:50:22;97992.06;;;11.26;71.50
77279;BME280;66332;50.436;15.378;2023-04-28T18:55:03;97992.19;;;11.18;71.41
77279;BME280;66332;50.436;15.378;2023-04-28T18:59:44;97992.06;;;11.26;71.24
77279;BME280;66332;50.436;15.378;2023-04-28T19:04:27;97983.22;;;11.12;72.23
77279;BME280;66332;50.436;15.378;2023-04-28T19:09:08;97994.56;;;10.91;72.62
77279;BME280;66332;50.436;15.378;2023-04-28T19:13:50;97990.03;;;10.85;72.66
77279;BME280;66332;50.436;15.378;2023-04-28T19:18:31;97989.13;;;10.93;73.64
77279;BME280;66332;50.436;15.378;2023-04-28T19:23:12;97988.81;;;10.81;74.27
77279;BME280;66332;50.436;15.378;2023-04-28T19:27:53;97980.84;;;10.74;74.76
77279;BME280;66332;50.436;15.378;2023-04-28T19:32:34;97977.66;;;10.79;75.13
77279;BME280;66332;50.436;15.378;2023-04-28T19:37:15;97979.53;;;10.85;73.97
77279;BME280;66332;50.436;15.378;2023-04-28T19:41:56;97973.56;;;10.76;74.86
77279;BME280;66332;50.436;15.378;2023-04-28T19:46:38;97968.06;;;10.71;74.27
77279;BME280;66332;50.436;15.378;2023-04-28T19:51:19;97976.44;;;10.60;75.44
77279;BME280;66332;50.436;15.378;2023-04-28T19:56:00;97980.59;;;10.69;75.72
77279;BME280;66332;50.436;15.378;2023-04-28T20:00:41;97978.81;;;10.76;74.94
77279;BME280;66332;50.436;15.378;2023-04-28T20:05:22;97985.28;;;10.95;73.73
77279;BME280;66332;50.436;15.378;2023-04-28T20:10:04;97980.47;;;10.77;75.19
77279;BME280;66332;50.436;15.378;2023-04-28T20:14:45;97987.63;;;10.84;75.51
77279;BME280;66332;50.436;15.378;2023-04-28T20:19:26;97985.16;;;10.82;76.79
77279;BME280;66332;50.436;15.378;2023-04-28T20:24:07;97989.47;;;10.68;78.28
77279;BME280;66332;50.436;15.378;2023-04-28T20:28:48;97977.16;;;10.90;76.97
77279;BME280;66332;50.436;15.378;2023-04-28T20:33:30;97974.38;;;10.77;78.06
77279;BME280;66332;50.436;15.378;2023-04-28T20:38:11;97971.69;;;10.70;77.59
77279;BME280;66332;50.436;15.378;2023-04-28T20:42:52;97972.81;;;10.61;78.17
77279;BME280;66332;50.436;15.378;2023-04-28T20:47:34;97964.97;;;10.68;77.66
77279;BME280;66332;50.436;15.378;2023-04-28T20:52:15;97947.66;;;10.37;78.02
77279;BME280;66332;50.436;15.378;2023-04-28T20:56:56;97953.75;;;10.08;79.38
77279;BME280;66332;50.436;15.378;2023-04-28T21:01:37;97951.66;;;10.03;80.28
77279;BME280;66332;50.436;15.378;2023-04-28T21:06:18;97967.53;;;9.95;81.22
77279;BME280;66332;50.436;15.378;2023-04-28T21:10:59;97956.84;;;10.11;80.76
77279;BME280;66332;50.436;15.378;2023-04-28T21:15:40;97957.38;;;10.07;80.44
77279;BME280;66332;50.436;15.378;2023-04-28T21:20:21;97961.56;;;10.01;81.64
77279;BME280;66332;50.436;15.378;2023-04-28T21:25:03;97961.72;;;10.15;81.64
77279;BME280;66332;50.436;15.378;2023-04-28T21:29:45;97965.69;;;10.25;80.35
77279;BME280;66332;50.436;15.378;2023-04-28T21:34:26;97956.84;;;10.11;80.82
77279;BME280;66332;50.436;15.378;2023-04-28T21:39:07;97949.75;;;10.12;81.33
77279;BME280;66332;50.436;15.378;2023-04-28T21:43:47;97952.59;;;9.96;81.70
77279;BME280;66332;50.436;15.378;2023-04-28T21:48:28;97945.34;;;9.98;81.92
77279;BME280;66332;50.436;15.378;2023-04-28T21:53:09;97949.16;;;9.95;81.33
